sensor_id;sensor_type;location;lat;lon;timestamp;P1;durP1;ratioP1;P2;durP2;ratioP2
3815;SDS011;1923;48.154;11.536;2022-09-03T00:00:32;1.85;;;1.67;;
3815;SDS011;1923;48.154;11.536;2022-09-03T00:03:03;2.80;;;1.70;;
3815;SDS011;1923;48.154;11.536;2022-09-03T00:05:37;2.43;;;2.20;;
3815;SDS011;1923;48.154;11.536;2022-09-03T00:08:09;2.83;;;2.10;;
3815;SDS011;1923;48.154;11.536;2022-09-03T00:10:42;2.73;;;2.10;;
3815;SDS011;1923;48.154;11.536;2022-09-03T00:13:27;2.90;;;2.20;;
3815;SDS011;1923;48.154;11.536;2022-09-03T00:16:02;2.27;;;1.83;;
3815;SDS011;1923;48.154;11.536;2022-09-03T00:18:35;1.67;;;1.52;;
3815;SDS011;1923;48.154;11.536;2022-09-03T00:21:11;3.67;;;2.03;;
3815;SDS011;1923;48.154;11.536;2022-09-03T00:23:43;2.90;;;1.80;;
3815;SDS011;1923;48.154;11.536;2022-09-03T00:26:18;2.17;;;1.80;;
3815;SDS011;1923;48.154;11.536;2022-09-03T00:28:53;2.87;;;2.00;;
3815;SDS011;1923;48.154;11.536;2022-09-03T00:31:27;2.45;;;1.98;;
3815;SDS011;1923;48.154;11.536;2022-09-03T00:33:59;1.50;;;1.40;;
3815;SDS011;1923;48.154;11.536;2022-09-03T00:36:34;2.00;;;1.33;;
3815;SDS011;1923;48.154;11.536;2022-09-03T00:39:08;2.55;;;1.60;;
3815;SDS011;1923;48.154;11.536;2022-09-03T00:41:43;2.13;;;1.67;;
3815;SDS011;1923;48.154;11.536;2022-09-03T00:44:29;2.43;;;1.73;;
3815;SDS011;1923;48.154;11.536;2022-09-03T00:47:08;2.30;;;2.10;;
3815;SDS011;1923;48.154;11.536;2022-09-03T00:49:44;2.40;;;2.00;;
3815;SDS011;1923;48.154;11.536;2022-09-03T00:52:23;2.50;;;1.90;;
3815;SDS011;1923;48.154;11.536;2022-09-03T00:55:07;3.10;;;2.13;;
3815;SDS011;1923;48.154;11.536;2022-09-03T00:57:43;2.70;;;2.33;;
3815;SDS011;1923;48.154;11.536;2022-09-03T01:00:20;2.43;;;1.77;;
3815;SDS011;1923;48.154;11.536;2022-09-03T01:02:55;2.83;;;1.97;;
3815;SDS011;1923;48.154;11.536;2022-09-03T01:05:40;3.93;;;1.87;;
3815;SDS011;1923;48.154;11.536;2022-09-03T01:08:19;4.03;;;1.87;;
3815;SDS011;1923;48.154;11.536;2022-09-03T01:11:02;2.87;;;2.50;;
3815;SDS011;1923;48.154;11.536;2022-09-03T01:13:45;2.25;;;1.73;;
3815;SDS011;1923;48.154;11.536;2022-09-03T01:16:23;3.97;;;1.83;;
3815;SDS011;1923;48.154;11.536;2022-09-03T01:19:00;2.70;;;2.20;;
3815;SDS011;1923;48.154;11.536;2022-09-03T01:21:52;4.60;;;1.77;;
3815;SDS011;1923;48.154;11.536;2022-09-03T01:24:38;2.13;;;1.77;;
3815;SDS011;1923;48.154;11.536;2022-09-03T01:27:30;2.30;;;2.10;;
3815;SDS011;1923;48.154;11.536;2022-09-03T01:30:11;2.80;;;2.40;;
3815;SDS011;1923;48.154;11.536;2022-09-03T01:32:46;2.50;;;1.90;;
3815;SDS011;1923;48.154;11.536;2022-09-03T01:35:28;2.63;;;2.10;;
3815;SDS011;1923;48.154;11.536;2022-09-03T01:38:05;3.37;;;2.30;;
3815;SDS011;1923;48.154;11.536;2022-09-03T01:40:44;2.20;;;2.00;;
3815;SDS011;1923;48.154;11.536;2022-09-03T01:43:46;2.70;;;2.10;;
3815;SDS011;1923;48.154;11.536;2022-09-03T01:46:22;3.77;;;2.50;;
3815;SDS011;1923;48.154;11.536;2022-09-03T01:48:57;3.73;;;1.87;;
3815;SDS011;1923;48.154;11.536;2022-09-03T01:51:32;5.00;;;2.57;;
3815;SDS011;1923;48.154;11.536;2022-09-03T02:00:13;2.07;;;1.87;;
3815;SDS011;1923;48.154;11.536;2022-09-03T02:02:45;2.73;;;2.30;;
3815;SDS011;1923;48.154;11.536;2022-09-03T02:05:18;4.13;;;2.20;;
3815;SDS011;1923;48.154;11.536;2022-09-03T02:07:56;2.93;;;2.33;;
3815;SDS011;1923;48.154;11.536;2022-09-03T02:10:30;2.40;;;2.20;;
3815;SDS011;1923;48.154;11.536;2022-09-03T02:13:06;4.50;;;2.43;;
3815;SDS011;1923;48.154;11.536;2022-09-03T02:15:37;3.53;;;2.20;;
3815;SDS011;1923;48.154;11.536;2022-09-03T02:18:15;2.60;;;2.40;;
3815;SDS011;1923;48.154;11.536;2022-09-03T02:20:46;2.23;;;2.07;;
3815;SDS011;1923;48.154;11.536;2022-09-03T02:23:16;3.10;;;2.30;;
3815;SDS011;1923;48.154;11.536;2022-09-03T02:25:50;2.97;;;2.30;;
3815;SDS011;1923;48.154;11.536;2022-09-03T02:28:24;4.33;;;2.57;;
3815;SDS011;1923;48.154;11.536;2022-09-03T02:30:53;2.70;;;2.50;;
3815;SDS011;1923;48.154;11.536;2022-09-03T02:33:24;3.20;;;2.27;;
3815;SDS011;1923;48.154;11.536;2022-09-03T02:35:53;3.07;;;2.70;;
3815;SDS011;1923;48.154;11.536;2022-09-03T02:38:25;2.20;;;2.00;;
3815;SDS011;1923;48.154;11.536;2022-09-03T02:40:54;4.93;;;2.47;;
3815;SDS011;1923;48.154;11.536;2022-09-03T02:43:22;3.10;;;2.73;;
3815;SDS011;1923;48.154;11.536;2022-09-03T02:45:54;4.90;;;2.67;;
3815;SDS011;1923;48.154;11.536;2022-09-03T02:48:29;2.83;;;2.27;;
3815;SDS011;1923;48.154;11.536;2022-09-03T02:51:05;3.57;;;2.90;;
3815;SDS011;1923;48.154;11.536;2022-09-03T02:53:39;3.43;;;2.70;;
3815;SDS011;1923;48.154;11.536;2022-09-03T02:56:08;3.00;;;2.13;;
3815;SDS011;1923;48.154;11.536;2022-09-03T02:58:37;2.83;;;2.50;;
3815;SDS011;1923;48.154;11.536;2022-09-03T03:01:07;4.13;;;2.67;;
3815;SDS011;1923;48.154;11.536;2022-09-03T03:03:41;3.77;;;2.60;;
3815;SDS011;1923;48.154;11.536;2022-09-03T03:06:09;4.60;;;3.00;;
3815;SDS011;1923;48.154;11.536;2022-09-03T03:08:39;3.93;;;2.37;;
3815;SDS011;1923;48.154;11.536;2022-09-03T03:11:07;3.43;;;2.77;;
3815;SDS011;1923;48.154;11.536;2022-09-03T03:13:36;6.93;;;2.90;;
3815;SDS011;1923;48.154;11.536;2022-09-03T03:16:09;8.10;;;2.97;;
3815;SDS011;1923;48.154;11.536;2022-09-03T03:18:37;5.00;;;2.63;;
3815;SDS011;1923;48.154;11.536;2022-09-03T03:21:07;3.10;;;2.80;;
3815;SDS011;1923;48.154;11.536;2022-09-03T03:23:38;3.23;;;2.60;;
3815;SDS011;1923;48.154;11.536;2022-09-03T03:26:07;3.17;;;2.27;;
3815;SDS011;1923;48.154;11.536;2022-09-03T03:28:36;3.43;;;2.53;;
3815;SDS011;1923;48.154;11.536;2022-09-03T03:31:05;4.17;;;2.87;;
3815;SDS011;1923;48.154;11.536;2022-09-03T03:33:34;2.90;;;2.60;;
3815;SDS011;1923;48.154;11.536;2022-09-03T03:36:02;4.20;;;2.60;;
3815;SDS011;1923;48.154;11.536;2022-09-03T03:38:33;3.03;;;2.73;;
3815;SDS011;1923;48.154;11.536;2022-09-03T03:41:05;3.03;;;2.50;;
3815;SDS011;1923;48.154;11.536;2022-09-03T03:43:34;4.77;;;3.30;;
3815;SDS011;1923;48.154;11.536;2022-09-03T03:46:02;3.67;;;3.33;;
3815;SDS011;1923;48.154;11.536;2022-09-03T03:48:31;4.63;;;2.90;;
3815;SDS011;1923;48.154;11.536;2022-09-03T03:57:41;3.53;;;2.97;;
3815;SDS011;1923;48.154;11.536;2022-09-03T04:00:30;3.10;;;2.80;;
3815;SDS011;1923;48.154;11.536;2022-09-03T04:03:04;2.97;;;2.67;;
3815;SDS011;1923;48.154;11.536;2022-09-03T04:05:40;2.90;;;2.57;;
3815;SDS011;1923;48.154;11.536;2022-09-03T04:08:13;4.60;;;2.93;;
3815;SDS011;1923;48.154;11.536;2022-09-03T04:10:58;7.13;;;3.23;;
3815;SDS011;1923;48.154;11.536;2022-09-03T04:13:36;3.53;;;2.73;;
3815;SDS011;1923;48.154;11.536;2022-09-03T04:16:13;3.90;;;2.97;;
3815;SDS011;1923;48.154;11.536;2022-09-03T04:18:55;3.03;;;2.70;;
3815;SDS011;1923;48.154;11.536;2022-09-03T04:21:29;3.00;;;2.50;;
3815;SDS011;1923;48.154;11.536;2022-09-03T04:24:10;2.87;;;2.53;;
3815;SDS011;1923;48.154;11.536;2022-09-03T04:26:49;4.00;;;3.27;;
3815;SDS011;1923;48.154;11.536;2022-09-03T04:29:25;2.70;;;2.47;;
3815;SDS011;1923;48.154;11.536;2022-09-03T04:32:03;3.77;;;3.10;;
3815;SDS011;1923;48.154;11.536;2022-09-03T04:34:49;3.30;;;2.83;;
3815;SDS011;1923;48.154;11.536;2022-09-03T04:37:20;3.57;;;3.27;;
3815;SDS011;1923;48.154;11.536;2022-09-03T04:39:51;3.17;;;2.87;;
3815;SDS011;1923;48.154;11.536;2022-09-03T04:42:31;4.43;;;2.90;;
3815;SDS011;1923;48.154;11.536;2022-09-03T04:45:02;3.70;;;3.10;;
3815;SDS011;1923;48.154;11.536;2022-09-03T04:47:36;6.00;;;4.27;;
3815;SDS011;1923;48.154;11.536;2022-09-03T04:50:20;4.10;;;2.90;;
3815;SDS011;1923;48.154;11.536;2022-09-03T04:52:55;21.60;;;11.67;;
3815;SDS011;1923;48.154;11.536;2022-09-03T04:55:49;7.80;;;4.43;;
3815;SDS011;1923;48.154;11.536;2022-09-03T04:58:29;3.97;;;2.97;;
3815;SDS011;1923;48.154;11.536;2022-09-03T05:01:09;8.53;;;4.97;;
3815;SDS011;1923;48.154;11.536;2022-09-03T05:03:47;3.10;;;2.80;;
3815;SDS011;1923;48.154;11.536;2022-09-03T05:06:29;4.83;;;3.37;;
3815;SDS011;1923;48.154;11.536;2022-09-03T05:08:58;6.93;;;3.40;;
3815;SDS011;1923;48.154;11.536;2022-09-03T05:11:27;7.20;;;3.47;;
3815;SDS011;1923;48.154;11.536;2022-09-03T05:13:58;4.97;;;3.60;;
3815;SDS011;1923;48.154;11.536;2022-09-03T05:16:27;5.77;;;3.50;;
3815;SDS011;1923;48.154;11.536;2022-09-03T05:18:57;2.87;;;2.50;;
3815;SDS011;1923;48.154;11.536;2022-09-03T05:21:26;4.40;;;3.00;;
3815;SDS011;1923;48.154;11.536;2022-09-03T05:23:55;6.00;;;3.17;;
3815;SDS011;1923;48.154;11.536;2022-09-03T05:26:24;5.70;;;2.43;;
3815;SDS011;1923;48.154;11.536;2022-09-03T05:28:54;5.93;;;3.17;;
3815;SDS011;1923;48.154;11.536;2022-09-03T05:31:26;3.93;;;2.73;;
3815;SDS011;1923;48.154;11.536;2022-09-03T05:33:58;3.40;;;2.70;;
3815;SDS011;1923;48.154;11.536;2022-09-03T05:36:28;2.27;;;2.07;;
3815;SDS011;1923;48.154;11.536;2022-09-03T05:38:59;3.00;;;2.50;;
3815;SDS011;1923;48.154;11.536;2022-09-03T05:41:27;3.13;;;2.83;;
3815;SDS011;1923;48.154;11.536;2022-09-03T05:43:55;5.10;;;3.37;;
3815;SDS011;1923;48.154;11.536;2022-09-03T05:46:27;3.57;;;2.83;;
3815;SDS011;1923;48.154;11.536;2022-09-03T05:48:58;3.87;;;2.77;;
3815;SDS011;1923;48.154;11.536;2022-09-03T05:51:28;3.87;;;2.70;;
3815;SDS011;1923;48.154;11.536;2022-09-03T05:53:57;2.60;;;2.40;;
3815;SDS011;1923;48.154;11.536;2022-09-03T05:56:26;5.03;;;2.83;;
3815;SDS011;1923;48.154;11.536;2022-09-03T05:58:56;3.23;;;2.93;;
3815;SDS011;1923;48.154;11.536;2022-09-03T06:01:29;2.90;;;2.60;;
3815;SDS011;1923;48.154;11.536;2022-09-03T06:03:59;3.23;;;2.93;;
3815;SDS011;1923;48.154;11.536;2022-09-03T06:06:29;4.90;;;2.67;;
3815;SDS011;1923;48.154;11.536;2022-09-03T06:08:58;3.57;;;2.97;;
3815;SDS011;1923;48.154;11.536;2022-09-03T06:11:29;3.47;;;2.50;;
3815;SDS011;1923;48.154;11.536;2022-09-03T06:13:59;3.70;;;3.33;;
3815;SDS011;1923;48.154;11.536;2022-09-03T06:16:32;4.20;;;2.70;;
3815;SDS011;1923;48.154;11.536;2022-09-03T06:19:01;3.97;;;2.90;;
3815;SDS011;1923;48.154;11.536;2022-09-03T06:21:31;2.90;;;2.60;;
3815;SDS011;1923;48.154;11.536;2022-09-03T06:23:59;6.50;;;3.80;;
3815;SDS011;1923;48.154;11.536;2022-09-03T06:26:28;4.00;;;3.43;;
3815;SDS011;1923;48.154;11.536;2022-09-03T06:28:56;4.10;;;2.93;;
3815;SDS011;1923;48.154;11.536;2022-09-03T06:31:25;3.00;;;2.70;;
3815;SDS011;1923;48.154;11.536;2022-09-03T06:33:55;4.70;;;3.07;;
3815;SDS011;1923;48.154;11.536;2022-09-03T06:36:29;3.10;;;2.53;;
3815;SDS011;1923;48.154;11.536;2022-09-03T06:38:57;3.70;;;3.00;;
3815;SDS011;1923;48.154;11.536;2022-09-03T06:41:26;3.80;;;2.60;;
3815;SDS011;1923;48.154;11.536;2022-09-03T06:43:57;3.17;;;2.60;;
3815;SDS011;1923;48.154;11.536;2022-09-03T06:46:28;3.53;;;2.60;;
3815;SDS011;1923;48.154;11.536;2022-09-03T06:48:58;3.47;;;2.83;;
3815;SDS011;1923;48.154;11.536;2022-09-03T06:51:27;3.73;;;2.60;;
3815;SDS011;1923;48.154;11.536;2022-09-03T06:53:58;3.67;;;2.53;;
3815;SDS011;1923;48.154;11.536;2022-09-03T06:56:27;3.93;;;2.90;;
3815;SDS011;1923;48.154;11.536;2022-09-03T06:59:03;6.10;;;3.00;;
3815;SDS011;1923;48.154;11.536;2022-09-03T07:01:32;3.83;;;3.00;;
3815;SDS011;1923;48.154;11.536;2022-09-03T07:04:04;5.37;;;2.80;;
3815;SDS011;1923;48.154;11.536;2022-09-03T07:06:33;5.00;;;2.73;;
3815;SDS011;1923;48.154;11.536;2022-09-03T07:09:03;4.67;;;3.53;;
3815;SDS011;1923;48.154;11.536;2022-09-03T07:11:32;6.20;;;4.40;;
3815;SDS011;1923;48.154;11.536;2022-09-03T07:14:01;4.87;;;3.77;;
3815;SDS011;1923;48.154;11.536;2022-09-03T07:16:31;4.10;;;3.50;;
3815;SDS011;1923;48.154;11.536;2022-09-03T07:19:01;5.00;;;3.60;;
3815;SDS011;1923;48.154;11.536;2022-09-03T07:21:31;5.20;;;3.20;;
3815;SDS011;1923;48.154;11.536;2022-09-03T07:24:02;4.27;;;3.07;;
3815;SDS011;1923;48.154;11.536;2022-09-03T07:26:32;5.37;;;3.40;;
3815;SDS011;1923;48.154;11.536;2022-09-03T07:29:01;4.37;;;2.80;;
3815;SDS011;1923;48.154;11.536;2022-09-03T07:31:30;5.60;;;2.90;;
3815;SDS011;1923;48.154;11.536;2022-09-03T07:34:00;5.13;;;2.43;;
3815;SDS011;1923;48.154;11.536;2022-09-03T07:36:37;2.83;;;2.50;;
3815;SDS011;1923;48.154;11.536;2022-09-03T07:39:07;3.43;;;2.90;;
3815;SDS011;1923;48.154;11.536;2022-09-03T07:41:36;3.73;;;2.60;;
3815;SDS011;1923;48.154;11.536;2022-09-03T07:44:08;3.70;;;2.40;;
3815;SDS011;1923;48.154;11.536;2022-09-03T07:46:37;2.33;;;2.13;;
3815;SDS011;1923;48.154;11.536;2022-09-03T07:49:05;3.67;;;2.97;;
3815;SDS011;1923;48.154;11.536;2022-09-03T07:51:35;5.50;;;2.87;;
3815;SDS011;1923;48.154;11.536;2022-09-03T07:54:05;3.40;;;2.90;;
3815;SDS011;1923;48.154;11.536;2022-09-03T07:56:36;3.60;;;2.40;;
3815;SDS011;1923;48.154;11.536;2022-09-03T07:59:06;5.93;;;2.60;;
3815;SDS011;1923;48.154;11.536;2022-09-03T08:01:37;4.47;;;3.27;;
3815;SDS011;1923;48.154;11.536;2022-09-03T08:04:07;3.30;;;2.90;;
3815;SDS011;1923;48.154;11.536;2022-09-03T08:06:37;3.80;;;2.87;;
3815;SDS011;1923;48.154;11.536;2022-09-03T08:09:07;3.53;;;3.23;;
3815;SDS011;1923;48.154;11.536;2022-09-03T08:11:39;4.03;;;3.17;;
3815;SDS011;1923;48.154;11.536;2022-09-03T08:14:10;3.37;;;2.47;;
3815;SDS011;1923;48.154;11.536;2022-09-03T08:16:39;3.13;;;2.33;;
3815;SDS011;1923;48.154;11.536;2022-09-03T08:19:10;4.90;;;3.00;;
3815;SDS011;1923;48.154;11.536;2022-09-03T08:21:40;5.13;;;3.47;;
3815;SDS011;1923;48.154;11.536;2022-09-03T08:24:08;3.67;;;3.23;;
3815;SDS011;1923;48.154;11.536;2022-09-03T08:26:38;5.70;;;2.73;;
3815;SDS011;1923;48.154;11.536;2022-09-03T08:29:13;4.33;;;3.70;;
3815;SDS011;1923;48.154;11.536;2022-09-03T08:31:41;4.23;;;3.20;;
3815;SDS011;1923;48.154;11.536;2022-09-03T08:34:12;4.10;;;3.23;;
3815;SDS011;1923;48.154;11.536;2022-09-03T08:36:43;4.27;;;3.53;;
3815;SDS011;1923;48.154;11.536;2022-09-03T08:39:12;4.80;;;3.60;;
3815;SDS011;1923;48.154;11.536;2022-09-03T08:41:45;4.60;;;2.70;;
3815;SDS011;1923;48.154;11.536;2022-09-03T08:44:27;4.03;;;2.97;;
3815;SDS011;1923;48.154;11.536;2022-09-03T08:46:58;4.40;;;3.27;;
3815;SDS011;1923;48.154;11.536;2022-09-03T08:49:33;6.23;;;3.50;;
3815;SDS011;1923;48.154;11.536;2022-09-03T08:52:24;4.97;;;3.33;;
3815;SDS011;1923;48.154;11.536;2022-09-03T08:54:58;5.00;;;3.57;;
3815;SDS011;1923;48.154;11.536;2022-09-03T08:57:31;4.73;;;3.43;;
3815;SDS011;1923;48.154;11.536;2022-09-03T09:00:07;4.07;;;2.97;;
3815;SDS011;1923;48.154;11.536;2022-09-03T09:02:38;4.43;;;2.80;;
3815;SDS011;1923;48.154;11.536;2022-09-03T09:05:17;4.47;;;2.80;;
3815;SDS011;1923;48.154;11.536;2022-09-03T09:07:54;4.33;;;3.23;;
3815;SDS011;1923;48.154;11.536;2022-09-03T09:10:30;3.43;;;2.70;;
3815;SDS011;1923;48.154;11.536;2022-09-03T09:13:06;3.37;;;2.63;;
3815;SDS011;1923;48.154;11.536;2022-09-03T09:15:45;3.10;;;2.60;;
3815;SDS011;1923;48.154;11.536;2022-09-03T09:18:21;3.10;;;2.33;;
3815;SDS011;1923;48.154;11.536;2022-09-03T09:20:57;3.80;;;2.60;;
3815;SDS011;1923;48.154;11.536;2022-09-03T09:23:36;5.00;;;2.90;;
3815;SDS011;1923;48.154;11.536;2022-09-03T09:26:09;2.53;;;2.20;;
3815;SDS011;1923;48.154;11.536;2022-09-03T09:28:38;4.50;;;2.17;;
3815;SDS011;1923;48.154;11.536;2022-09-03T09:31:08;4.43;;;2.40;;
3815;SDS011;1923;48.154;11.536;2022-09-03T09:33:41;4.40;;;2.60;;
3815;SDS011;1923;48.154;11.536;2022-09-03T09:36:10;3.13;;;2.00;;
3815;SDS011;1923;48.154;11.536;2022-09-03T09:38:42;2.93;;;1.73;;
3815;SDS011;1923;48.154;11.536;2022-09-03T09:41:12;2.70;;;1.90;;
3815;SDS011;1923;48.154;11.536;2022-09-03T09:43:41;4.10;;;2.33;;
3815;SDS011;1923;48.154;11.536;2022-09-03T09:46:11;2.40;;;1.80;;
3815;SDS011;1923;48.154;11.536;2022-09-03T09:48:45;1.73;;;1.60;;
3815;SDS011;1923;48.154;11.536;2022-09-03T09:51:20;2.93;;;1.80;;
3815;SDS011;1923;48.154;11.536;2022-09-03T09:54:00;2.53;;;1.50;;
3815;SDS011;1923;48.154;11.536;2022-09-03T09:56:30;1.87;;;1.70;;
3815;SDS011;1923;48.154;11.536;2022-09-03T09:59:01;2.23;;;1.70;;
3815;SDS011;1923;48.154;11.536;2022-09-03T10:01:31;4.20;;;1.50;;
3815;SDS011;1923;48.154;11.536;2022-09-03T10:04:07;2.00;;;1.73;;
3815;SDS011;1923;48.154;11.536;2022-09-03T10:06:36;2.67;;;1.83;;
3815;SDS011;1923;48.154;11.536;2022-09-03T10:09:25;1.87;;;1.70;;
3815;SDS011;1923;48.154;11.536;2022-09-03T10:12:04;2.50;;;1.63;;
3815;SDS011;1923;48.154;11.536;2022-09-03T10:14:44;3.50;;;1.93;;
3815;SDS011;1923;48.154;11.536;2022-09-03T10:17:25;2.13;;;1.93;;
3815;SDS011;1923;48.154;11.536;2022-09-03T10:20:04;2.63;;;1.40;;
3815;SDS011;1923;48.154;11.536;2022-09-03T10:23:01;1.73;;;1.33;;
3815;SDS011;1923;48.154;11.536;2022-09-03T10:25:42;1.80;;;1.10;;
3815;SDS011;1923;48.154;11.536;2022-09-03T10:28:25;2.40;;;1.50;;
3815;SDS011;1923;48.154;11.536;2022-09-03T10:31:05;1.63;;;1.47;;
3815;SDS011;1923;48.154;11.536;2022-09-03T10:33:57;1.53;;;1.00;;
3815;SDS011;1923;48.154;11.536;2022-09-03T10:36:35;1.70;;;1.33;;
3815;SDS011;1923;48.154;11.536;2022-09-03T10:39:14;1.57;;;1.00;;
3815;SDS011;1923;48.154;11.536;2022-09-03T10:41:57;1.60;;;1.10;;
3815;SDS011;1923;48.154;11.536;2022-09-03T10:44:45;1.63;;;1.13;;
3815;SDS011;1923;48.154;11.536;2022-09-03T10:47:42;2.00;;;1.10;;
3815;SDS011;1923;48.154;11.536;2022-09-03T10:50:41;1.70;;;1.20;;
3815;SDS011;1923;48.154;11.536;2022-09-03T10:53:26;1.70;;;1.00;;
3815;SDS011;1923;48.154;11.536;2022-09-03T10:56:16;1.33;;;1.10;;
3815;SDS011;1923;48.154;11.536;2022-09-03T11:01:55;2.37;;;1.30;;
3815;SDS011;1923;48.154;11.536;2022-09-03T11:04:36;1.73;;;1.00;;
3815;SDS011;1923;48.154;11.536;2022-09-03T11:07:12;3.03;;;1.63;;
3815;SDS011;1923;48.154;11.536;2022-09-03T11:09:50;1.67;;;1.40;;
3815;SDS011;1923;48.154;11.536;2022-09-03T11:12:23;1.20;;;1.10;;
3815;SDS011;1923;48.154;11.536;2022-09-03T11:15:08;2.30;;;1.70;;
3815;SDS011;1923;48.154;11.536;2022-09-03T11:17:51;1.20;;;1.10;;
3815;SDS011;1923;48.154;11.536;2022-09-03T11:20:31;2.17;;;1.40;;
3815;SDS011;1923;48.154;11.536;2022-09-03T11:23:07;1.30;;;1.00;;
3815;SDS011;1923;48.154;11.536;2022-09-03T11:25:43;1.30;;;1.07;;
3815;SDS011;1923;48.154;11.536;2022-09-03T11:28:40;1.60;;;1.10;;
3815;SDS011;1923;48.154;11.536;2022-09-03T11:31:36;1.30;;;0.93;;
3815;SDS011;1923;48.154;11.536;2022-09-03T11:34:28;1.07;;;0.90;;
3815;SDS011;1923;48.154;11.536;2022-09-03T11:37:22;1.83;;;1.23;;
3815;SDS011;1923;48.154;11.536;2022-09-03T11:40:03;1.07;;;0.83;;
3815;SDS011;1923;48.154;11.536;2022-09-03T11:42:34;2.20;;;1.20;;
3815;SDS011;1923;48.154;11.536;2022-09-03T11:45:11;1.47;;;1.00;;
3815;SDS011;1923;48.154;11.536;2022-09-03T11:48:01;1.40;;;1.10;;
3815;SDS011;1923;48.154;11.536;2022-09-03T11:50:52;2.00;;;1.27;;
3815;SDS011;1923;48.154;11.536;2022-09-03T11:53:32;1.73;;;1.13;;
3815;SDS011;1923;48.154;11.536;2022-09-03T11:56:16;1.87;;;1.07;;
3815;SDS011;1923;48.154;11.536;2022-09-03T11:59:00;1.30;;;0.90;;
3815;SDS011;1923;48.154;11.536;2022-09-03T12:01:41;3.07;;;1.03;;
3815;SDS011;1923;48.154;11.536;2022-09-03T12:04:28;1.40;;;0.80;;
3815;SDS011;1923;48.154;11.536;2022-09-03T12:07:27;1.40;;;0.80;;
3815;SDS011;1923;48.154;11.536;2022-09-03T12:10:25;1.13;;;0.90;;
3815;SDS011;1923;48.154;11.536;2022-09-03T12:13:20;1.43;;;1.07;;
3815;SDS011;1923;48.154;11.536;2022-09-03T12:16:22;2.50;;;1.30;;
3815;SDS011;1923;48.154;11.536;2022-09-03T12:19:03;1.73;;;1.00;;
3815;SDS011;1923;48.154;11.536;2022-09-03T12:21:39;1.50;;;1.30;;
3815;SDS011;1923;48.154;11.536;2022-09-03T12:24:21;2.33;;;1.30;;
3815;SDS011;1923;48.154;11.536;2022-09-03T12:27:03;1.47;;;1.07;;
3815;SDS011;1923;48.154;11.536;2022-09-03T12:29:48;1.53;;;1.10;;
3815;SDS011;1923;48.154;11.536;2022-09-03T12:32:29;1.27;;;0.90;;
3815;SDS011;1923;48.154;11.536;2022-09-03T12:35:10;1.67;;;1.30;;
3815;SDS011;1923;48.154;11.536;2022-09-03T12:38:01;1.30;;;1.10;;
3815;SDS011;1923;48.154;11.536;2022-09-03T12:40:33;2.30;;;1.60;;
3815;SDS011;1923;48.154;11.536;2022-09-03T12:43:25;2.40;;;1.23;;
3815;SDS011;1923;48.154;11.536;2022-09-03T12:46:04;2.00;;;1.60;;
3815;SDS011;1923;48.154;11.536;2022-09-03T12:48:45;1.60;;;1.17;;
3815;SDS011;1923;48.154;11.536;2022-09-03T12:51:39;1.30;;;1.20;;
3815;SDS011;1923;48.154;11.536;2022-09-03T12:54:19;2.10;;;1.43;;
3815;SDS011;1923;48.154;11.536;2022-09-03T12:56:49;2.00;;;1.23;;
3815;SDS011;1923;48.154;11.536;2022-09-03T12:59:22;1.67;;;1.37;;
3815;SDS011;1923;48.154;11.536;2022-09-03T13:01:54;1.83;;;1.37;;
3815;SDS011;1923;48.154;11.536;2022-09-03T13:04:28;1.47;;;1.30;;
3815;SDS011;1923;48.154;11.536;2022-09-03T13:06:59;1.40;;;0.97;;
3815;SDS011;1923;48.154;11.536;2022-09-03T13:09:32;3.10;;;1.40;;
3815;SDS011;1923;48.154;11.536;2022-09-03T13:12:04;1.43;;;1.33;;
3815;SDS011;1923;48.154;11.536;2022-09-03T13:14:40;1.10;;;1.00;;
3815;SDS011;1923;48.154;11.536;2022-09-03T13:17:14;1.90;;;0.93;;
3815;SDS011;1923;48.154;11.536;2022-09-03T13:19:58;1.23;;;1.03;;
3815;SDS011;1923;48.154;11.536;2022-09-03T13:22:54;2.00;;;1.20;;
3815;SDS011;1923;48.154;11.536;2022-09-03T13:25:36;1.40;;;1.10;;
3815;SDS011;1923;48.154;11.536;2022-09-03T13:28:18;1.50;;;0.97;;
3815;SDS011;1923;48.154;11.536;2022-09-03T13:30:54;1.77;;;1.20;;
3815;SDS011;1923;48.154;11.536;2022-09-03T13:33:31;2.17;;;1.67;;
3815;SDS011;1923;48.154;11.536;2022-09-03T13:36:04;2.30;;;1.70;;
3815;SDS011;1923;48.154;11.536;2022-09-03T13:38:41;1.40;;;1.30;;
3815;SDS011;1923;48.154;11.536;2022-09-03T13:41:19;2.17;;;1.20;;
3815;SDS011;1923;48.154;11.536;2022-09-03T13:44:02;2.50;;;2.00;;
3815;SDS011;1923;48.154;11.536;2022-09-03T13:46:39;2.47;;;1.50;;
3815;SDS011;1923;48.154;11.536;2022-09-03T13:49:16;2.67;;;1.73;;
3815;SDS011;1923;48.154;11.536;2022-09-03T13:52:14;4.50;;;2.30;;
3815;SDS011;1923;48.154;11.536;2022-09-03T13:54:49;2.47;;;1.07;;
3815;SDS011;1923;48.154;11.536;2022-09-03T13:57:31;1.80;;;1.37;;
3815;SDS011;1923;48.154;11.536;2022-09-03T14:00:06;1.70;;;1.17;;
3815;SDS011;1923;48.154;11.536;2022-09-03T14:02:45;1.90;;;1.50;;
3815;SDS011;1923;48.154;11.536;2022-09-03T14:05:22;1.80;;;1.40;;
3815;SDS011;1923;48.154;11.536;2022-09-03T14:08:03;2.40;;;1.50;;
3815;SDS011;1923;48.154;11.536;2022-09-03T14:10:44;1.77;;;1.23;;
3815;SDS011;1923;48.154;11.536;2022-09-03T14:13:23;1.90;;;1.63;;
3815;SDS011;1923;48.154;11.536;2022-09-03T14:16:03;1.83;;;1.30;;
3815;SDS011;1923;48.154;11.536;2022-09-03T14:18:37;1.50;;;1.40;;
3815;SDS011;1923;48.154;11.536;2022-09-03T14:21:10;2.33;;;1.43;;
3815;SDS011;1923;48.154;11.536;2022-09-03T14:23:47;3.97;;;1.67;;
3815;SDS011;1923;48.154;11.536;2022-09-03T14:26:23;4.40;;;2.67;;
3815;SDS011;1923;48.154;11.536;2022-09-03T14:29:12;2.43;;;1.67;;
3815;SDS011;1923;48.154;11.536;2022-09-03T14:31:58;3.70;;;2.00;;
3815;SDS011;1923;48.154;11.536;2022-09-03T14:34:42;2.60;;;1.33;;
3815;SDS011;1923;48.154;11.536;2022-09-03T14:37:36;3.97;;;1.10;;
3815;SDS011;1923;48.154;11.536;2022-09-03T14:40:14;7.90;;;1.80;;
3815;SDS011;1923;48.154;11.536;2022-09-03T14:42:56;4.53;;;2.07;;
3815;SDS011;1923;48.154;11.536;2022-09-03T14:45:56;3.47;;;1.90;;
3815;SDS011;1923;48.154;11.536;2022-09-03T14:48:41;2.83;;;1.70;;
3815;SDS011;1923;48.154;11.536;2022-09-03T14:51:22;2.60;;;1.40;;
3815;SDS011;1923;48.154;11.536;2022-09-03T14:54:10;4.87;;;2.40;;
3815;SDS011;1923;48.154;11.536;2022-09-03T14:57:09;3.63;;;1.60;;
3815;SDS011;1923;48.154;11.536;2022-09-03T14:59:51;4.77;;;1.90;;
3815;SDS011;1923;48.154;11.536;2022-09-03T15:06:00;5.57;;;2.10;;
3815;SDS011;1923;48.154;11.536;2022-09-03T15:08:42;3.17;;;1.60;;
3815;SDS011;1923;48.154;11.536;2022-09-03T15:11:23;7.43;;;2.67;;
3815;SDS011;1923;48.154;11.536;2022-09-03T15:13:59;2.73;;;1.70;;
3815;SDS011;1923;48.154;11.536;2022-09-03T15:16:39;4.73;;;2.50;;
3815;SDS011;1923;48.154;11.536;2022-09-03T15:19:26;2.67;;;1.73;;
3815;SDS011;1923;48.154;11.536;2022-09-03T15:22:24;6.23;;;1.80;;
3815;SDS011;1923;48.154;11.536;2022-09-03T15:25:17;3.10;;;1.70;;
3815;SDS011;1923;48.154;11.536;2022-09-03T15:28:06;2.60;;;1.37;;
3815;SDS011;1923;48.154;11.536;2022-09-03T15:30:47;2.50;;;1.60;;
3815;SDS011;1923;48.154;11.536;2022-09-03T15:33:28;2.40;;;1.60;;
3815;SDS011;1923;48.154;11.536;2022-09-03T15:36:09;21.63;;;6.50;;
3815;SDS011;1923;48.154;11.536;2022-09-03T15:38:51;4.57;;;2.13;;
3815;SDS011;1923;48.154;11.536;2022-09-03T15:41:30;3.23;;;1.80;;
3815;SDS011;1923;48.154;11.536;2022-09-03T15:44:17;3.80;;;1.83;;
3815;SDS011;1923;48.154;11.536;2022-09-03T15:46:50;4.70;;;1.70;;
3815;SDS011;1923;48.154;11.536;2022-09-03T15:49:42;3.87;;;1.77;;
3815;SDS011;1923;48.154;11.536;2022-09-03T15:52:25;3.30;;;1.33;;
3815;SDS011;1923;48.154;11.536;2022-09-03T15:55:07;1.80;;;1.23;;
3815;SDS011;1923;48.154;11.536;2022-09-03T15:57:40;10.40;;;4.60;;
3815;SDS011;1923;48.154;11.536;2022-09-03T16:00:17;3.73;;;1.97;;
3815;SDS011;1923;48.154;11.536;2022-09-03T16:02:49;2.57;;;1.20;;
3815;SDS011;1923;48.154;11.536;2022-09-03T16:05:24;2.90;;;1.50;;
3815;SDS011;1923;48.154;11.536;2022-09-03T16:08:07;2.57;;;1.63;;
3815;SDS011;1923;48.154;11.536;2022-09-03T16:10:47;2.90;;;1.70;;
3815;SDS011;1923;48.154;11.536;2022-09-03T16:13:29;3.87;;;1.20;;
3815;SDS011;1923;48.154;11.536;2022-09-03T16:16:14;1.30;;;0.97;;